Time;durP1;ratioP1;P1;durP2;ratioP2;P2;SDS_P1;SDS_P2;PMS_P1;PMS_P2;Temp;Humidity;BMP_temperature;BMP_pressure;BME280_temperature;BME280_humidity;BME280_pressure;Samples;Min_cycle;Max_cycle;Signal;HPM_P1;HPM_P2
2022/01/26 00:06:36;;;;;;;;;;;3.40;99.90;;;;;;5218808;27;19992;-86
2022/01/26 00:09:04;;;;;;;;;;;3.40;99.90;;;;;;5200066;27;44141;-86
2022/01/26 00:11:31;;;;;;;;;;;3.40;99.90;;;;;;5219096;27;20351;-86
2022/01/26 00:14:00;;;;;;;;;;;3.40;99.90;;;;;;5237042;27;21948;-86
2022/01/26 00:16:38;;;;;;;;;;;3.40;99.90;;;;;;5237356;27;33910;-86
2022/01/26 00:19:11;;;;;;;;;;;3.30;99.90;;;;;;5219215;27;19991;-86
2022/01/26 00:21:48;;;;;;;;;;;3.40;99.90;;;;;;5219170;27;19991;-86
2022/01/26 00:29:31;;;;;;;;;;;3.40;99.90;;;;;;5237241;27;40773;-86
2022/01/26 00:40:16;;;;;;;;;;;3.30;99.90;;;;;;5236951;27;44299;-86
2022/01/26 00:42:52;;;;;;;;;;;3.30;99.90;;;;;;5200291;27;36254;-86
2022/01/26 00:45:24;;;;;;;;;;;3.30;99.90;;;;;;5200097;27;41253;-86
2022/01/26 00:47:51;;;;;;;;;;;3.30;99.90;;;;;;5237881;27;21233;-86
2022/01/26 00:50:24;;;;;;;;;;;3.30;99.90;;;;;;5218054;27;38569;-86
2022/01/26 00:52:55;;;;;;;;;;;3.30;99.90;;;;;;5217105;27;45194;-86
2022/01/26 00:55:22;;;;;;;;;;;3.30;99.90;;;;;;5218154;27;40707;-86
2022/01/26 00:57:50;;;;;;;;;;;3.30;99.90;;;;;;5217542;27;38436;-86
2022/01/26 01:00:23;;;;;;;;;;;3.30;99.90;;;;;;5217867;27;32216;-86
2022/01/26 01:02:51;;;;;;;;;;;3.30;99.90;;;;;;5218263;27;39659;-86
2022/01/26 01:05:27;;;;;;;;;;;3.30;99.90;;;;;;5201306;27;36414;-85
2022/01/26 01:08:04;;;;;;;;;;;3.30;99.90;;;;;;5202309;27;21520;-86
2022/01/26 01:10:34;;;;;;;;;;;3.30;99.90;;;;;;5203016;27;20343;-86
2022/01/26 01:13:07;;;;;;;;;;;3.30;99.90;;;;;;5239218;27;20028;-86
2022/01/26 01:15:36;;;;;;;;;;;3.30;99.90;;;;;;5220024;27;19992;-86
2022/01/26 01:18:13;;;;;;;;;;;3.30;99.90;;;;;;5238870;27;20003;-86
2022/01/26 01:31:56;;;;;;;;;;;3.30;99.90;;;;;;5238078;27;42773;-86
2022/01/26 01:34:15;;;;;;;;;;;3.30;99.90;;;;;;5217253;27;20410;-86
2022/01/26 01:36:45;;;;;;;;;;;3.30;99.90;;;;;;5219670;27;20406;-86
2022/01/26 01:39:12;;;;;;;;;;;3.30;99.90;;;;;;5238547;27;20422;-87
2022/01/26 01:41:43;;;;;;;;;;;3.30;99.90;;;;;;5218546;27;40297;-86
2022/01/26 01:44:11;;;;;;;;;;;3.30;99.90;;;;;;5201744;27;36001;-86
2022/01/26 01:46:41;;;;;;;;;;;3.30;99.90;;;;;;5238707;27;24179;-87
2022/01/26 01:49:10;;;;;;;;;;;3.30;99.90;;;;;;5219242;27;40426;-86
2022/01/26 01:51:41;;;;;;;;;;;3.20;99.90;;;;;;5218685;27;31380;-85
2022/01/26 01:54:16;;;;;;;;;;;3.20;99.90;;;;;;5238384;27;19995;-86
2022/01/26 01:56:45;;;;;;;;;;;3.20;99.90;;;;;;5238819;27;19995;-86
2022/01/26 01:59:13;;;;;;;;;;;3.20;99.90;;;;;;5220041;27;20002;-86
2022/01/26 02:01:43;;;;;;;;;;;3.20;99.90;;;;;;5218401;27;34716;-86
2022/01/26 02:04:12;;;;;;;;;;;3.20;99.90;;;;;;5219213;27;21345;-86
2022/01/26 02:06:43;;;;;;;;;;;3.20;99.90;;;;;;5219798;27;19999;-86
2022/01/26 02:09:13;;;;;;;;;;;3.20;99.90;;;;;;5220013;27;20498;-86
2022/01/26 02:11:44;;;;;;;;;;;3.20;99.90;;;;;;5238193;27;20057;-86
2022/01/26 02:14:22;;;;;;;;;;;3.20;99.90;;;;;;5219421;27;20007;-86
2022/01/26 02:17:58;;;;;;;;;;;3.20;99.90;;;;;;5220044;27;20001;-86
2022/01/26 02:20:08;;;;;;;;;;;3.20;99.90;;;;;;5207676;27;41591;-86
2022/01/26 02:55:42;;;;;;;;;;;3.10;99.90;;;;;;5219479;27;20052;-86
2022/01/26 03:01:23;;;;;;;;;;;3.10;99.90;;;;;;5238518;27;20016;-86
2022/01/26 03:04:04;;;;;;;;;;;3.10;99.90;;;;;;5237560;27;19995;-86
2022/01/26 03:09:25;;;;;;;;;;;3.10;99.90;;;;;;5238262;27;20003;-86
2022/01/26 03:11:53;;;;;;;;;;;3.10;99.90;;;;;;5238788;27;19999;-86
2022/01/26 03:16:59;;;;;;;;;;;3.10;99.90;;;;;;5218805;27;20002;-86
2022/01/26 03:19:51;;;;;;;;;;;3.10;99.90;;;;;;5238504;27;20045;-86
2022/01/26 03:30:35;;;;;;;;;;;3.10;99.90;;;;;;5238320;27;20479;-86
2022/01/26 03:33:25;;;;;;;;;;;3.10;99.90;;;;;;5219620;27;20010;-86
2022/01/26 03:35:58;;;;;;;;;;;3.10;99.90;;;;;;5238297;27;20005;-86
2022/01/26 03:38:38;;;;;;;;;;;3.10;99.90;;;;;;5238506;27;19995;-86
2022/01/26 03:41:17;;;;;;;;;;;3.10;99.90;;;;;;5219637;27;20324;-86
2022/01/26 03:43:45;;;;;;;;;;;3.10;99.90;;;;;;5219493;27;20337;-86
2022/01/26 03:46:14;;;;;;;;;;;3.10;99.90;;;;;;5219606;27;19999;-86
2022/01/26 03:48:47;;;;;;;;;;;3.10;99.90;;;;;;5218985;27;19995;-86
2022/01/26 03:51:17;;;;;;;;;;;3.10;99.90;;;;;;5219231;27;20003;-86
2022/01/26 03:53:45;;;;;;;;;;;3.10;99.90;;;;;;5218816;27;20384;-86
2022/01/26 03:56:12;;;;;;;;;;;3.10;99.90;;;;;;5218577;27;19988;-86
2022/01/26 03:58:43;;;;;;;;;;;3.10;99.90;;;;;;5219639;27;20038;-86
2022/01/26 04:01:13;;;;;;;;;;;3.10;99.90;;;;;;5237131;27;20277;-87
2022/01/26 04:03:40;;;;;;;;;;;3.00;99.90;;;;;;5238362;27;20384;-86
2022/01/26 04:06:11;;;;;;;;;;;3.00;99.90;;;;;;5238281;27;20047;-86
2022/01/26 04:08:43;;;;;;;;;;;3.10;99.90;;;;;;5201761;27;20003;-86
2022/01/26 04:13:52;;;;;;;;;;;3.00;99.90;;;;;;5218750;27;20421;-86
2022/01/26 04:16:20;;;;;;;;;;;3.00;99.90;;;;;;5218696;27;19992;-87
2022/01/26 04:18:48;;;;;;;;;;;3.00;99.90;;;;;;5219051;27;20003;-86
2022/01/26 04:26:14;;;;;;;;;;;3.00;99.90;;;;;;5238070;27;20057;-87
2022/01/26 04:28:52;;;;;;;;;;;3.00;99.90;;;;;;5201888;27;20050;-86
2022/01/26 04:31:21;;;;;;;;;;;3.00;99.90;;;;;;5219672;27;20004;-86
2022/01/26 04:33:49;;;;;;;;;;;3.00;99.90;;;;;;5219732;27;19999;-86
2022/01/26 04:36:27;;;;;;;;;;;3.00;99.90;;;;;;5238760;27;20034;-86
2022/01/26 04:39:00;;;;;;;;;;;3.00;99.90;;;;;;5219588;27;20023;-86
2022/01/26 04:41:36;;;;;;;;;;;3.00;99.90;;;;;;5220658;27;20319;-86
2022/01/26 04:44:10;;;;;;;;;;;3.00;99.90;;;;;;5220652;27;20411;-86
2022/01/26 04:46:40;;;;;;;;;;;3.00;99.90;;;;;;5203048;27;19997;-86
2022/01/26 04:49:07;;;;;;;;;;;3.00;99.90;;;;;;5202555;27;20006;-86
2022/01/26 04:51:34;;;;;;;;;;;3.00;99.90;;;;;;5220334;27;20325;-86
2022/01/26 04:54:04;;;;;;;;;;;3.00;99.90;;;;;;5239987;27;20049;-86
2022/01/26 04:56:31;;;;;;;;;;;3.00;99.90;;;;;;5219465;27;20224;-86
2022/01/26 04:58:58;;;;;;;;;;;3.00;99.90;;;;;;5238956;27;20005;-86
2022/01/26 05:01:26;;;;;;;;;;;3.00;99.90;;;;;;5219709;27;20400;-86
2022/01/26 05:03:53;;;;;;;;;;;3.00;99.90;;;;;;5239468;27;19998;-86
2022/01/26 05:06:20;;;;;;;;;;;3.00;99.90;;;;;;5239096;27;20048;-86
2022/01/26 05:08:47;;;;;;;;;;;3.00;99.90;;;;;;5202882;27;20444;-86
2022/01/26 05:11:28;;;;;;;;;;;3.00;99.90;;;;;;5239429;27;20051;-86
2022/01/26 05:14:01;;;;;;;;;;;3.00;99.90;;;;;;5220860;27;20418;-86
2022/01/26 05:16:31;;;;;;;;;;;3.00;99.90;;;;;;5239460;27;20002;-86
2022/01/26 05:18:59;;;;;;;;;;;3.00;99.90;;;;;;5202736;27;20380;-87
2022/01/26 05:21:29;;;;;;;;;;;3.00;99.90;;;;;;5219571;27;20011;-86
2022/01/26 05:23:59;;;;;;;;;;;2.90;99.90;;;;;;5219462;27;20057;-86
2022/01/26 05:26:26;;;;;;;;;;;3.00;99.90;;;;;;5238217;27;20011;-85
2022/01/26 05:28:53;;;;;;;;;;;3.00;99.90;;;;;;5239716;27;20374;-86
2022/01/26 05:31:23;;;;;;;;;;;3.00;99.90;;;;;;5219782;27;20096;-85
2022/01/26 05:33:50;;;;;;;;;;;3.00;99.90;;;;;;5238930;27;19995;-86
2022/01/26 05:36:17;;;;;;;;;;;2.90;99.90;;;;;;5239203;27;19995;-87
2022/01/26 05:38:45;;;;;;;;;;;2.90;99.90;;;;;;5220355;27;20010;-86
2022/01/26 05:41:12;;;;;;;;;;;2.90;99.90;;;;;;5219733;27;20004;-86
2022/01/26 05:43:40;;;;;;;;;;;2.90;99.90;;;;;;5219755;27;20009;-86
2022/01/26 05:46:27;;;;;;;;;;;3.00;99.90;;;;;;5219654;27;20007;-86
2022/01/26 05:48:59;;;;;;;;;;;2.90;99.90;;;;;;5201675;27;20445;-86
2022/01/26 05:51:31;;;;;;;;;;;2.90;99.90;;;;;;5220318;27;19991;-86
2022/01/26 05:54:02;;;;;;;;;;;2.90;99.90;;;;;;5219501;27;19997;-87
2022/01/26 05:56:29;;;;;;;;;;;2.90;99.90;;;;;;5239037;27;20019;-86
2022/01/26 05:59:00;;;;;;;;;;;2.90;99.90;;;;;;5219330;27;19992;-86
2022/01/26 06:01:27;;;;;;;;;;;2.90;99.90;;;;;;5238795;27;19996;-86
2022/01/26 06:03:57;;;;;;;;;;;2.90;99.90;;;;;;5220830;27;20001;-86
2022/01/26 06:06:27;;;;;;;;;;;2.90;99.90;;;;;;5201922;27;19991;-85
2022/01/26 06:08:57;;;;;;;;;;;2.90;99.90;;;;;;5219961;27;20314;-86
2022/01/26 06:11:24;;;;;;;;;;;2.90;99.90;;;;;;5219120;27;20045;-86
2022/01/26 06:13:53;;;;;;;;;;;2.90;99.90;;;;;;5238655;27;20015;-86
2022/01/26 06:16:21;;;;;;;;;;;2.90;99.90;;;;;;5219430;27;20005;-86
2022/01/26 06:18:48;;;;;;;;;;;2.90;99.90;;;;;;5219480;27;19992;-86
2022/01/26 06:21:15;;;;;;;;;;;2.90;99.90;;;;;;5239050;27;19999;-86
2022/01/26 06:23:43;;;;;;;;;;;2.90;99.90;;;;;;5220418;27;20414;-86
2022/01/26 06:26:10;;;;;;;;;;;2.90;99.90;;;;;;5219910;27;20005;-86
2022/01/26 06:28:37;;;;;;;;;;;2.90;99.90;;;;;;5202037;27;19995;-86
2022/01/26 06:31:09;;;;;;;;;;;2.90;99.90;;;;;;5202004;27;20035;-86
2022/01/26 06:33:41;;;;;;;;;;;2.90;99.90;;;;;;5219066;27;20001;-86
2022/01/26 06:36:15;;;;;;;;;;;2.90;99.90;;;;;;5220578;27;20007;-86
2022/01/26 06:38:46;;;;;;;;;;;2.90;99.90;;;;;;5219629;27;19995;-86
2022/01/26 06:41:14;;;;;;;;;;;2.90;99.90;;;;;;5201723;27;20414;-86
2022/01/26 06:43:55;;;;;;;;;;;2.90;99.90;;;;;;5219611;27;20022;-86
2022/01/26 06:46:34;;;;;;;;;;;2.90;99.90;;;;;;5238540;27;20006;-86
2022/01/26 06:49:47;;;;;;;;;;;2.90;99.90;;;;;;5239152;27;20005;-86
2022/01/26 06:51:54;;;;;;;;;;;2.90;99.90;;;;;;5241730;27;20042;-86
2022/01/26 06:54:21;;;;;;;;;;;2.80;99.90;;;;;;5218810;27;20006;-86
2022/01/26 06:56:48;;;;;;;;;;;2.80;99.90;;;;;;5219354;27;20423;-86
2022/01/26 06:59:23;;;;;;;;;;;2.80;99.90;;;;;;5220253;27;20011;-85
2022/01/26 07:01:53;;;;;;;;;;;2.80;99.90;;;;;;5237201;27;33149;-86
2022/01/26 07:04:20;;;;;;;;;;;2.80;99.90;;;;;;5237141;27;38512;-87
2022/01/26 07:06:47;;;;;;;;;;;2.80;99.90;;;;;;5236984;27;36825;-87
2022/01/26 07:09:17;;;;;;;;;;;2.80;99.90;;;;;;5237037;27;32493;-87
2022/01/26 07:11:47;;;;;;;;;;;2.80;99.90;;;;;;5237624;27;31864;-87
2022/01/26 07:19:54;;;;;;;;;;;2.80;99.90;;;;;;5217850;27;44019;-86
2022/01/26 07:22:21;;;;;;;;;;;2.80;99.90;;;;;;5217894;27;41624;-86
2022/01/26 07:24:48;;;;;;;;;;;2.80;99.90;;;;;;5217769;27;38088;-87
2022/01/26 07:27:18;;;;;;;;;;;2.80;99.90;;;;;;5238172;27;20052;-87
2022/01/26 07:29:48;;;;;;;;;;;2.80;99.90;;;;;;5200237;27;44018;-87
2022/01/26 07:32:15;;;;;;;;;;;2.80;99.90;;;;;;5218323;27;34971;-89
2022/01/26 07:34:45;;;;;;;;;;;2.70;99.90;;;;;;5202349;27;19995;-87
2022/01/26 07:37:17;;;;;;;;;;;2.70;99.90;;;;;;5219214;27;19995;-86
2022/01/26 07:40:03;;;;;;;;;;;2.70;99.90;;;;;;5218237;27;38963;-86
2022/01/26 07:42:30;;;;;;;;;;;2.70;99.90;;;;;;5218193;27;39503;-86
2022/01/26 07:44:57;;;;;;;;;;;2.70;99.90;;;;;;5236772;27;35254;-86
2022/01/26 07:47:25;;;;;;;;;;;2.80;99.90;;;;;;5218691;27;29923;-86
2022/01/26 07:49:55;;;;;;;;;;;2.70;99.90;;;;;;5218711;27;29985;-87
2022/01/26 07:52:23;;;;;;;;;;;2.70;99.90;;;;;;5218275;27;35890;-87
2022/01/26 07:54:53;;;;;;;;;;;2.70;99.90;;;;;;5219023;27;20003;-86
2022/01/26 07:57:21;;;;;;;;;;;2.70;99.90;;;;;;5217998;27;35603;-85
2022/01/26 07:59:48;;;;;;;;;;;2.70;99.90;;;;;;5237188;27;23842;-86
2022/01/26 08:02:15;;;;;;;;;;;2.70;99.90;;;;;;5236503;27;38202;-86
2022/01/26 08:04:42;;;;;;;;;;;2.70;99.90;;;;;;5237463;27;30763;-87
2022/01/26 08:07:10;;;;;;;;;;;2.70;99.90;;;;;;5217930;27;29353;-86
2022/01/26 08:09:43;;;;;;;;;;;2.70;99.90;;;;;;5199899;27;42203;-86
2022/01/26 08:12:14;;;;;;;;;;;2.70;99.90;;;;;;5220088;27;20008;-86
2022/01/26 08:14:45;;;;;;;;;;;2.70;99.90;;;;;;5220238;27;19999;-86
2022/01/26 08:17:15;;;;;;;;;;;2.70;99.90;;;;;;5218672;27;45233;-87
2022/01/26 08:19:55;;;;;;;;;;;2.70;99.90;;;;;;5220828;27;20011;-84
2022/01/26 08:22:31;;;;;;;;;;;2.70;99.90;;;;;;5239796;27;22373;-86
2022/01/26 08:25:07;;;;;;;;;;;2.70;99.90;;;;;;5221393;27;20014;-85
2022/01/26 08:27:41;;;;;;;;;;;2.70;99.90;;;;;;5203320;27;20003;-88
2022/01/26 08:30:17;;;;;;;;;;;2.70;99.90;;;;;;5239967;27;20013;-87
2022/01/26 08:32:51;;;;;;;;;;;2.70;99.90;;;;;;5239708;27;20002;-86
2022/01/26 08:35:21;;;;;;;;;;;2.70;99.90;;;;;;5201647;27;39546;-86
2022/01/26 08:37:50;;;;;;;;;;;2.70;99.90;;;;;;5219744;27;19999;-86
2022/01/26 08:40:25;;;;;;;;;;;2.70;99.90;;;;;;5239303;27;20377;-86
2022/01/26 08:42:58;;;;;;;;;;;2.70;99.90;;;;;;5201295;27;43687;-87
2022/01/26 08:45:25;;;;;;;;;;;2.70;99.90;;;;;;5201286;27;38964;-87
2022/01/26 08:48:00;;;;;;;;;;;2.70;99.90;;;;;;5219777;27;20008;-86
2022/01/26 08:50:32;;;;;;;;;;;2.70;99.90;;;;;;5219366;27;28602;-88
2022/01/26 08:53:05;;;;;;;;;;;2.70;99.90;;;;;;5238351;27;42651;-88
2022/01/26 08:55:36;;;;;;;;;;;2.70;99.90;;;;;;5218884;27;36781;-87
2022/01/26 08:58:06;;;;;;;;;;;2.70;99.90;;;;;;5202428;27;20023;-87
2022/01/26 09:00:39;;;;;;;;;;;2.70;99.90;;;;;;5201582;27;26463;-86
2022/01/26 09:03:14;;;;;;;;;;;2.70;99.90;;;;;;5219936;27;40899;-87
2022/01/26 09:05:41;;;;;;;;;;;2.70;99.90;;;;;;5219845;27;35868;-87
2022/01/26 09:08:17;;;;;;;;;;;2.70;99.90;;;;;;5201231;27;39890;-87
2022/01/26 09:10:47;;;;;;;;;;;2.60;99.90;;;;;;5219559;27;37988;-82
2022/01/26 09:13:17;;;;;;;;;;;2.70;99.90;;;;;;5200885;27;39702;-82
2022/01/26 09:15:44;;;;;;;;;;;2.70;99.90;;;;;;5218783;27;39160;-82
2022/01/26 09:18:30;;;;;;;;;;;2.60;99.90;;;;;;5202439;27;19983;-82
2022/01/26 09:20:57;;;;;;;;;;;2.70;99.90;;;;;;5219252;27;27754;-82
2022/01/26 09:23:24;;;;;;;;;;;2.60;99.90;;;;;;5237770;27;28412;-82
2022/01/26 09:25:51;;;;;;;;;;;2.70;99.90;;;;;;5218798;27;36088;-83
2022/01/26 09:28:18;;;;;;;;;;;2.60;99.90;;;;;;5219161;27;38102;-82
2022/01/26 09:30:45;;;;;;;;;;;2.70;99.90;;;;;;5237925;27;38175;-83
2022/01/26 09:33:13;;;;;;;;;;;2.60;99.90;;;;;;5218900;27;34809;-83
2022/01/26 09:35:40;;;;;;;;;;;2.70;99.90;;;;;;5219128;27;39218;-82
2022/01/26 09:38:11;;;;;;;;;;;2.60;99.90;;;;;;5219835;27;41303;-82
2022/01/26 09:40:38;;;;;;;;;;;2.60;99.90;;;;;;5238016;27;39686;-82
2022/01/26 09:43:05;;;;;;;;;;;2.60;99.90;;;;;;5238385;27;27962;-82
2022/01/26 09:45:34;;;;;;;;;;;2.60;99.90;;;;;;5200605;27;44946;-82
2022/01/26 09:48:03;;;;;;;;;;;2.60;99.90;;;;;;5237364;27;39923;-82
2022/01/26 09:50:44;;;;;;;;;;;2.70;99.90;;;;;;5202122;27;41600;-82
2022/01/26 09:53:16;;;;;;;;;;;2.70;99.90;;;;;;5237999;27;43565;-82
2022/01/26 09:55:43;;;;;;;;;;;2.60;99.90;;;;;;5218377;27;41114;-82
2022/01/26 09:58:20;;;;;;;;;;;2.60;99.90;;;;;;5219041;27;23370;-82
2022/01/26 10:00:55;;;;;;;;;;;2.70;99.90;;;;;;5218903;27;44502;-82
2022/01/26 10:03:33;;;;;;;;;;;2.60;99.90;;;;;;5201650;27;20003;-82
2022/01/26 10:06:01;;;;;;;;;;;2.60;99.90;;;;;;5219255;27;23726;-82
2022/01/26 10:19:05;;;;;;;;;;;2.60;99.90;;;;;;5217962;27;44932;-82
2022/01/26 10:21:33;;;;;;;;;;;2.70;99.90;;;;;;5220016;27;20010;-82
2022/01/26 10:24:10;;;;;;;;;;;2.70;99.90;;;;;;5218280;27;41727;-82
2022/01/26 10:26:37;;;;;;;;;;;2.70;99.90;;;;;;5200865;27;43650;-82
2022/01/26 10:29:04;;;;;;;;;;;2.70;99.90;;;;;;5218933;27;43435;-82
2022/01/26 10:31:31;;;;;;;;;;;2.70;99.90;;;;;;5237539;27;44809;-83
2022/01/26 10:34:12;;;;;;;;;;;2.70;99.90;;;;;;5237750;27;32422;-82
2022/01/26 10:36:40;;;;;;;;;;;2.70;99.90;;;;;;5237111;27;38676;-81
2022/01/26 10:39:09;;;;;;;;;;;2.70;99.90;;;;;;5218738;27;39106;-82
2022/01/26 10:41:37;;;;;;;;;;;2.70;99.90;;;;;;5236905;27;43485;-82
2022/01/26 10:44:07;;;;;;;;;;;2.70;99.90;;;;;;5200729;27;34067;-82
2022/01/26 10:46:43;;;;;;;;;;;2.70;99.90;;;;;;5200405;27;37836;-83
2022/01/26 10:57:03;;;;;;;;;;;2.70;99.90;;;;;;5237794;27;20007;-82
2022/01/26 10:59:32;;;;;;;;;;;2.70;99.90;;;;;;5237078;27;34353;-82
2022/01/26 11:02:03;;;;;;;;;;;2.70;99.90;;;;;;5200960;27;19999;-82
2022/01/26 11:04:37;;;;;;;;;;;2.60;99.90;;;;;;5217970;27;44756;-82
2022/01/26 11:07:05;;;;;;;;;;;2.70;99.90;;;;;;5219117;27;32086;-83
2022/01/26 11:09:33;;;;;;;;;;;2.70;99.90;;;;;;5218591;27;39157;-82
2022/01/26 11:12:05;;;;;;;;;;;2.60;99.90;;;;;;5237480;27;43666;-82
2022/01/26 11:14:42;;;;;;;;;;;2.60;99.90;;;;;;5237710;27;19995;-82
2022/01/26 11:17:13;;;;;;;;;;;2.60;99.90;;;;;;5219159;27;20002;-82
2022/01/26 11:19:45;;;;;;;;;;;2.70;99.90;;;;;;5218117;27;20016;-83
2022/01/26 11:22:13;;;;;;;;;;;2.60;99.90;;;;;;5201142;27;19992;-82
2022/01/26 11:25:11;;;;;;;;;;;2.70;99.90;;;;;;5236946;27;34577;-83
2022/01/26 11:27:39;;;;;;;;;;;2.70;99.90;;;;;;5237362;27;42056;-83
2022/01/26 11:30:15;;;;;;;;;;;2.70;99.90;;;;;;5217536;27;38579;-82
2022/01/26 11:32:53;;;;;;;;;;;2.70;99.90;;;;;;5219652;27;19999;-82
2022/01/26 11:35:21;;;;;;;;;;;2.70;99.90;;;;;;5238975;27;20007;-82
2022/01/26 11:38:03;;;;;;;;;;;2.70;99.90;;;;;;5237581;27;20006;-82
2022/01/26 11:46:23;;;;;;;;;;;2.70;99.90;;;;;;5217850;27;20725;-82
2022/01/26 11:49:07;;;;;;;;;;;2.70;99.90;;;;;;5218822;27;19987;-82
2022/01/26 11:51:55;;;;;;;;;;;2.70;99.90;;;;;;5238553;27;20007;-82
2022/01/26 11:54:24;;;;;;;;;;;2.70;99.90;;;;;;5218067;27;42988;-83
2022/01/26 11:57:02;;;;;;;;;;;2.70;99.90;;;;;;5218072;27;41845;-82
2022/01/26 11:59:33;;;;;;;;;;;2.70;99.90;;;;;;5218097;27;43997;-82
2022/01/26 12:02:09;;;;;;;;;;;2.70;99.90;;;;;;5236545;27;36233;-82
2022/01/26 12:04:38;;;;;;;;;;;2.70;99.90;;;;;;5218621;27;28962;-82
2022/01/26 12:07:09;;;;;;;;;;;2.70;99.90;;;;;;5237265;27;20028;-83
2022/01/26 12:09:42;;;;;;;;;;;2.70;99.90;;;;;;5238374;27;20049;-82
2022/01/26 12:12:15;;;;;;;;;;;2.70;99.90;;;;;;5219233;27;20003;-83
2022/01/26 12:14:46;;;;;;;;;;;2.70;99.90;;;;;;5201359;27;19991;-83
2022/01/26 12:17:27;;;;;;;;;;;2.70;99.90;;;;;;5238724;27;20003;-82
2022/01/26 12:32:01;;;;;;;;;;;2.70;99.90;;;;;;5218990;27;19992;-82
2022/01/26 12:37:09;;;;;;;;;;;2.70;99.90;;;;;;5238265;27;19987;-82
2022/01/26 12:45:22;;;;;;;;;;;2.60;99.90;;;;;;5236891;27;43653;-82
2022/01/26 12:47:53;;;;;;;;;;;2.70;99.90;;;;;;5218859;27;19983;-82
2022/01/26 12:50:28;;;;;;;;;;;2.70;99.90;;;;;;5219536;27;41803;-83
2022/01/26 12:52:57;;;;;;;;;;;2.70;99.90;;;;;;5199578;27;45222;-83
2022/01/26 12:55:28;;;;;;;;;;;2.70;99.90;;;;;;5217481;27;38172;-82
2022/01/26 12:57:56;;;;;;;;;;;2.70;99.90;;;;;;5237811;27;39734;-83
2022/01/26 13:00:25;;;;;;;;;;;2.70;99.90;;;;;;5237499;27;38202;-83
2022/01/26 13:02:52;;;;;;;;;;;2.70;99.90;;;;;;5218873;27;30298;-82
2022/01/26 13:05:26;;;;;;;;;;;2.70;99.90;;;;;;5237799;27;43714;-83
2022/01/26 13:08:00;;;;;;;;;;;2.70;99.90;;;;;;5237503;27;39350;-83
2022/01/26 13:10:30;;;;;;;;;;;2.70;99.90;;;;;;5220609;27;19991;-83
2022/01/26 13:13:10;;;;;;;;;;;2.70;99.90;;;;;;5200667;27;44801;-83
2022/01/26 13:15:47;;;;;;;;;;;2.70;99.90;;;;;;5220904;27;20058;-83
2022/01/26 13:18:18;;;;;;;;;;;2.70;99.90;;;;;;5239682;27;20002;-82
2022/01/26 13:23:46;;;;;;;;;;;2.70;99.90;;;;;;5239222;27;20453;-82
2022/01/26 13:37:46;;;;;;;;;;;2.70;99.90;;;;;;5239670;27;20056;-82
2022/01/26 13:40:46;;;;;;;;;;;2.70;99.90;;;;;;5239330;27;20368;-83
2022/01/26 13:55:15;;;;;;;;;;;2.70;99.90;;;;;;5231977;27;19995;-83
2022/01/26 13:57:52;;;;;;;;;;;2.60;99.90;;;;;;5238977;27;20050;-83
2022/01/26 14:00:21;;;;;;;;;;;2.60;99.90;;;;;;5201731;27;19997;-83
2022/01/26 14:02:53;;;;;;;;;;;2.60;99.90;;;;;;5238176;27;20090;-83
2022/01/26 14:05:23;;;;;;;;;;;2.60;99.90;;;;;;5219076;27;19992;-82
2022/01/26 14:07:50;;;;;;;;;;;2.60;99.90;;;;;;5219930;27;20031;-83
2022/01/26 14:10:18;;;;;;;;;;;2.70;99.90;;;;;;5238302;27;20118;-83
2022/01/26 14:12:48;;;;;;;;;;;2.60;99.90;;;;;;5201182;27;20002;-83
2022/01/26 14:15:38;;;;;;;;;;;2.60;99.90;;;;;;5201753;27;20000;-83
2022/01/26 14:25:53;;;;;;;;;;;2.60;99.90;;;;;;5217625;27;45024;-83
2022/01/26 14:28:29;;;;;;;;;;;2.60;99.90;;;;;;5219266;27;19987;-82
2022/01/26 15:33:43;;;;;;;;;;;2.60;99.90;;;;;;5236412;27;38054;-83
2022/01/26 15:44:39;;;;;;;;;;;2.60;99.90;;;;;;5217640;27;43660;-83
2022/01/26 18:14:26;;;;;;;;;;;2.40;99.90;;;;;;5216309;27;44670;-81
2022/01/26 18:16:40;;;;;;;;;;;2.50;99.90;;;;;;5217148;27;20064;-80
2022/01/26 18:33:06;;;;;;;;;;;2.50;99.90;;;;;;5214329;27;45341;-81
2022/01/26 18:51:43;;;;;;;;;;;2.40;99.90;;;;;;5217356;27;20002;-81
2022/01/26 18:54:18;;;;;;;;;;;2.50;99.90;;;;;;5215604;27;20337;-80
2022/01/26 18:56:46;;;;;;;;;;;2.50;99.90;;;;;;5216200;27;44614;-81
2022/01/26 18:59:17;;;;;;;;;;;2.50;99.90;;;;;;5213975;27;46797;-81
2022/01/26 19:01:45;;;;;;;;;;;2.40;99.90;;;;;;5186090;27;44755;-79
2022/01/26 19:04:37;;;;;;;;;;;2.40;99.90;;;;;;5200322;27;20624;-81
2022/01/26 19:07:06;;;;;;;;;;;2.40;99.90;;;;;;5216087;27;37653;-81
2022/01/26 19:09:38;;;;;;;;;;;2.50;99.90;;;;;;5216084;27;44093;-81
2022/01/26 19:12:08;;;;;;;;;;;2.40;99.90;;;;;;5215890;27;38103;-81
2022/01/26 19:14:39;;;;;;;;;;;2.50;99.90;;;;;;5216018;27;44690;-81
2022/01/26 19:17:16;;;;;;;;;;;2.50;99.90;;;;;;5215886;27;38733;-81
2022/01/26 19:19:58;;;;;;;;;;;2.40;99.90;;;;;;5214764;27;32083;-81
2022/01/26 19:23:11;;;;;;;;;;;2.40;99.90;;;;;;5214627;27;42024;-80
2022/01/26 19:25:28;;;;;;;;;;;2.40;99.90;;;;;;5215001;27;20021;-81
2022/01/26 19:40:00;;;;;;;;;;;2.40;99.90;;;;;;5190830;27;37032;-81
2022/01/26 19:43:05;;;;;;;;;;;2.40;99.90;;;;;;5214671;27;35564;-81
2022/01/26 19:44:50;;;;;;;;;;;2.50;99.90;;;;;;5215543;27;20007;-81
2022/01/26 19:52:57;;;;;;;;;;;2.50;99.90;;;;;;5215979;27;44702;-81
2022/01/26 19:55:27;;;;;;;;;;;2.50;99.90;;;;;;5215768;27;45000;-81
2022/01/26 19:58:00;;;;;;;;;;;2.50;99.90;;;;;;5214227;27;32444;-81
2022/01/26 20:00:35;;;;;;;;;;;2.50;99.90;;;;;;5214978;27;33595;-81
2022/01/26 20:03:05;;;;;;;;;;;2.50;99.90;;;;;;5233227;27;20240;-81
2022/01/26 20:05:36;;;;;;;;;;;2.40;99.90;;;;;;5217890;27;31599;-81
2022/01/26 20:08:20;;;;;;;;;;;2.50;99.90;;;;;;5236855;27;44357;-80
2022/01/26 20:10:56;;;;;;;;;;;2.40;99.90;;;;;;5219076;27;20068;-81
2022/01/26 20:13:30;;;;;;;;;;;2.50;99.90;;;;;;5220029;27;20048;-81
2022/01/26 20:16:03;;;;;;;;;;;2.50;99.90;;;;;;5238699;27;20043;-81
2022/01/26 20:18:38;;;;;;;;;;;2.50;99.90;;;;;;5219386;27;20010;-81
2022/01/26 20:21:15;;;;;;;;;;;2.50;99.90;;;;;;5220351;27;20007;-80
2022/01/26 20:23:44;;;;;;;;;;;2.50;99.90;;;;;;5219677;27;20013;-81
2022/01/26 20:26:12;;;;;;;;;;;2.50;99.90;;;;;;5238648;27;20317;-81
2022/01/26 20:28:43;;;;;;;;;;;2.50;99.90;;;;;;5237904;27;20042;-81
2022/01/26 20:31:20;;;;;;;;;;;2.50;99.90;;;;;;5201778;27;19988;-81
2022/01/26 20:33:54;;;;;;;;;;;2.50;99.90;;;;;;5201656;27;20043;-81
2022/01/26 20:36:28;;;;;;;;;;;2.50;99.90;;;;;;5219364;27;19999;-80
2022/01/26 20:38:56;;;;;;;;;;;2.50;99.90;;;;;;5201753;27;20043;-81
2022/01/26 20:41:32;;;;;;;;;;;2.50;99.90;;;;;;5201208;27;19998;-81
2022/01/26 20:44:00;;;;;;;;;;;2.50;99.90;;;;;;5238488;27;20407;-81
2022/01/26 20:46:27;;;;;;;;;;;2.50;99.90;;;;;;5219733;27;20372;-81
2022/01/26 20:48:57;;;;;;;;;;;2.50;99.90;;;;;;5219815;27;20403;-81
2022/01/26 20:51:29;;;;;;;;;;;2.50;99.90;;;;;;5218696;27;20000;-81
2022/01/26 20:53:59;;;;;;;;;;;2.50;99.90;;;;;;5219270;27;20058;-81
2022/01/26 20:56:31;;;;;;;;;;;2.50;99.90;;;;;;5201215;27;20058;-81
2022/01/26 20:59:03;;;;;;;;;;;2.50;99.90;;;;;;5218354;27;20008;-81
2022/01/26 21:01:33;;;;;;;;;;;2.50;99.90;;;;;;5218481;27;19991;-81
2022/01/26 21:04:03;;;;;;;;;;;2.50;99.90;;;;;;5219261;27;20006;-81
2022/01/26 21:06:30;;;;;;;;;;;2.50;99.90;;;;;;5218596;27;19995;-81
2022/01/26 21:09:02;;;;;;;;;;;2.50;99.90;;;;;;5237754;27;20006;-81
2022/01/26 21:11:32;;;;;;;;;;;2.50;99.90;;;;;;5238342;27;20022;-81
2022/01/26 21:14:05;;;;;;;;;;;2.50;99.90;;;;;;5201913;27;19984;-81
2022/01/26 21:16:34;;;;;;;;;;;2.60;99.90;;;;;;5238031;27;20004;-81
2022/01/26 21:19:02;;;;;;;;;;;2.50;99.90;;;;;;5219155;27;20397;-85
2022/01/26 21:21:29;;;;;;;;;;;2.50;99.90;;;;;;5219591;27;20391;-86
2022/01/26 21:24:10;;;;;;;;;;;2.50;99.90;;;;;;5202653;27;20328;-86
2022/01/26 21:26:40;;;;;;;;;;;2.50;99.90;;;;;;5239870;27;19991;-86
2022/01/26 21:29:13;;;;;;;;;;;2.50;99.90;;;;;;5220832;27;20402;-86
2022/01/26 21:31:40;;;;;;;;;;;2.50;99.90;;;;;;5220489;27;19995;-86
2022/01/26 21:34:10;;;;;;;;;;;2.50;99.90;;;;;;5219860;27;20007;-86
2022/01/26 21:36:38;;;;;;;;;;;2.50;99.90;;;;;;5239175;27;19991;-87
2022/01/26 21:39:08;;;;;;;;;;;2.60;99.90;;;;;;5219622;27;20005;-86
2022/01/26 21:41:38;;;;;;;;;;;2.50;99.90;;;;;;5238822;27;20028;-87
2022/01/26 21:44:08;;;;;;;;;;;2.50;99.90;;;;;;5202564;27;20032;-86
2022/01/26 21:46:40;;;;;;;;;;;2.60;99.90;;;;;;5220046;27;20426;-87
2022/01/26 21:49:10;;;;;;;;;;;2.60;99.90;;;;;;5239068;27;20023;-86
2022/01/26 21:51:40;;;;;;;;;;;2.60;99.90;;;;;;5202793;27;19988;-86
2022/01/26 21:54:10;;;;;;;;;;;2.50;99.90;;;;;;5203041;27;20027;-87
2022/01/26 21:56:40;;;;;;;;;;;2.60;99.90;;;;;;5219314;27;20003;-87
2022/01/26 21:59:12;;;;;;;;;;;2.50;99.90;;;;;;5219747;27;20010;-86
2022/01/26 22:01:48;;;;;;;;;;;2.60;99.90;;;;;;5219672;27;20014;-86
2022/01/26 22:04:19;;;;;;;;;;;2.50;99.90;;;;;;5202670;27;20099;-86
2022/01/26 22:06:46;;;;;;;;;;;2.50;99.90;;;;;;5238594;27;20500;-86
2022/01/26 22:09:16;;;;;;;;;;;2.50;99.90;;;;;;5239452;27;20055;-86
2022/01/26 22:11:43;;;;;;;;;;;2.50;99.90;;;;;;5219877;27;20007;-86
2022/01/26 22:14:11;;;;;;;;;;;2.50;99.90;;;;;;5239278;27;20321;-86